Terminal Aerodrome Forecast
Issued by NWS Detroit/Pontiac, MI

Home | Current Version | Previous Version | Text Only | Print | Product List | Glossary On
Versions: 1 2 3 4 5 6 7 8 9 10 11 12 13 14 15 16 17 18 19 20 21 22 23 24 25 26 27 28
202
FTUS43 KDTX 310520
TAFDTW
TAF
KDTW 310520Z 3106/0112 03005KT P6SM SCT030 BKN060
     FM310800 VRB04KT 4SM BR SCT020 BKN200
     FM311200 VRB05KT P6SM SCT030 BKN060 PROB30 3120/3123 4SM TSRA
      OVC030CB
     FM010200 34005KT P6SM SCT060 BKN120=

USA.gov is the U.S. government's official web portal to all federal, state and local government web resources and services.